sensor_id;sensor_type;location;lat;lon;timestamp;P1;durP1;ratioP1;P2;durP2;ratioP2
22254;SDS011;11296;42.684;23.322;2022-11-18T00:01:18;28.47;;;19.03;;
22254;SDS011;11296;42.684;23.322;2022-11-18T00:03:46;26.07;;;17.30;;
22254;SDS011;11296;42.684;23.322;2022-11-18T00:06:13;28.60;;;18.20;;
22254;SDS011;11296;42.684;23.322;2022-11-18T00:08:41;26.33;;;17.20;;
22254;SDS011;11296;42.684;23.322;2022-11-18T00:11:11;25.03;;;17.40;;
22254;SDS011;11296;42.684;23.322;2022-11-18T00:14:02;25.53;;;17.50;;
22254;SDS011;11296;42.684;23.322;2022-11-18T00:16:46;23.53;;;17.03;;
22254;SDS011;11296;42.684;23.322;2022-11-18T00:19:18;28.80;;;18.13;;
22254;SDS011;11296;42.684;23.322;2022-11-18T00:21:55;28.47;;;18.93;;
22254;SDS011;11296;42.684;23.322;2022-11-18T00:24:24;29.70;;;19.63;;
22254;SDS011;11296;42.684;23.322;2022-11-18T00:26:55;26.07;;;18.63;;
22254;SDS011;11296;42.684;23.322;2022-11-18T00:29:21;29.10;;;19.47;;
22254;SDS011;11296;42.684;23.322;2022-11-18T00:31:51;32.40;;;21.03;;
22254;SDS011;11296;42.684;23.322;2022-11-18T00:34:17;29.23;;;20.23;;
22254;SDS011;11296;42.684;23.322;2022-11-18T00:36:44;30.63;;;20.67;;
22254;SDS011;11296;42.684;23.322;2022-11-18T00:39:11;30.23;;;19.80;;
22254;SDS011;11296;42.684;23.322;2022-11-18T00:41:40;29.03;;;19.77;;
22254;SDS011;11296;42.684;23.322;2022-11-18T00:44:28;31.00;;;21.60;;
22254;SDS011;11296;42.684;23.322;2022-11-18T00:46:59;29.17;;;20.63;;
22254;SDS011;11296;42.684;23.322;2022-11-18T00:49:25;29.80;;;21.53;;
22254;SDS011;11296;42.684;23.322;2022-11-18T00:51:55;32.00;;;21.13;;
22254;SDS011;11296;42.684;23.322;2022-11-18T00:54:21;30.50;;;21.17;;
22254;SDS011;11296;42.684;23.322;2022-11-18T00:56:48;29.53;;;19.90;;
22254;SDS011;11296;42.684;23.322;2022-11-18T00:59:14;24.57;;;17.37;;
22254;SDS011;11296;42.684;23.322;2022-11-18T01:01:41;29.40;;;18.47;;
22254;SDS011;11296;42.684;23.322;2022-11-18T01:04:11;29.90;;;20.73;;
22254;SDS011;11296;42.684;23.322;2022-11-18T01:06:43;28.37;;;18.00;;
22254;SDS011;11296;42.684;23.322;2022-11-18T01:09:15;24.33;;;17.57;;
22254;SDS011;11296;42.684;23.322;2022-11-18T01:11:45;23.30;;;17.43;;
22254;SDS011;11296;42.684;23.322;2022-11-18T01:14:32;28.70;;;18.67;;
22254;SDS011;11296;42.684;23.322;2022-11-18T01:17:03;22.57;;;16.90;;
22254;SDS011;11296;42.684;23.322;2022-11-18T01:19:42;27.37;;;18.90;;
22254;SDS011;11296;42.684;23.322;2022-11-18T01:22:16;26.67;;;18.90;;
22254;SDS011;11296;42.684;23.322;2022-11-18T01:24:49;22.50;;;16.10;;
22254;SDS011;11296;42.684;23.322;2022-11-18T01:27:27;20.53;;;15.60;;
22254;SDS011;11296;42.684;23.322;2022-11-18T01:29:53;27.00;;;18.00;;
22254;SDS011;11296;42.684;23.322;2022-11-18T01:32:19;23.83;;;16.40;;
22254;SDS011;11296;42.684;23.322;2022-11-18T01:34:45;26.17;;;16.60;;
22254;SDS011;11296;42.684;23.322;2022-11-18T01:37:10;23.40;;;17.50;;
22254;SDS011;11296;42.684;23.322;2022-11-18T01:39:38;26.00;;;16.97;;
22254;SDS011;11296;42.684;23.322;2022-11-18T01:42:04;24.43;;;16.27;;
22254;SDS011;11296;42.684;23.322;2022-11-18T01:44:55;25.93;;;18.40;;
22254;SDS011;11296;42.684;23.322;2022-11-18T01:47:27;26.57;;;18.60;;
22254;SDS011;11296;42.684;23.322;2022-11-18T01:49:57;30.33;;;21.67;;
22254;SDS011;11296;42.684;23.322;2022-11-18T01:52:23;26.57;;;19.80;;
22254;SDS011;11296;42.684;23.322;2022-11-18T01:54:50;36.80;;;24.87;;
22254;SDS011;11296;42.684;23.322;2022-11-18T01:57:21;43.67;;;25.93;;
22254;SDS011;11296;42.684;23.322;2022-11-18T01:59:52;42.13;;;27.30;;
22254;SDS011;11296;42.684;23.322;2022-11-18T02:02:20;55.57;;;34.80;;
22254;SDS011;11296;42.684;23.322;2022-11-18T02:04:47;44.47;;;31.57;;
22254;SDS011;11296;42.684;23.322;2022-11-18T02:07:14;46.97;;;32.67;;
22254;SDS011;11296;42.684;23.322;2022-11-18T02:09:40;51.37;;;33.00;;
22254;SDS011;11296;42.684;23.322;2022-11-18T02:12:06;52.77;;;34.93;;
22254;SDS011;11296;42.684;23.322;2022-11-18T02:14:33;51.50;;;33.83;;
22254;SDS011;11296;42.684;23.322;2022-11-18T02:19:50;53.03;;;36.17;;
22254;SDS011;11296;42.684;23.322;2022-11-18T02:30:22;59.20;;;38.37;;
22254;SDS011;11296;42.684;23.322;2022-11-18T02:32:56;53.27;;;33.57;;
22254;SDS011;11296;42.684;23.322;2022-11-18T02:35:25;58.13;;;35.20;;
22254;SDS011;11296;42.684;23.322;2022-11-18T02:37:59;55.60;;;37.40;;
22254;SDS011;11296;42.684;23.322;2022-11-18T02:40:31;55.10;;;37.23;;
22254;SDS011;11296;42.684;23.322;2022-11-18T02:43:34;56.50;;;37.13;;
22254;SDS011;11296;42.684;23.322;2022-11-18T02:46:08;56.03;;;37.80;;
22254;SDS011;11296;42.684;23.322;2022-11-18T02:48:40;61.07;;;39.20;;
22254;SDS011;11296;42.684;23.322;2022-11-18T02:51:11;60.27;;;38.37;;
22254;SDS011;11296;42.684;23.322;2022-11-18T02:53:42;63.93;;;40.33;;
22254;SDS011;11296;42.684;23.322;2022-11-18T02:56:11;60.10;;;38.83;;
22254;SDS011;11296;42.684;23.322;2022-11-18T02:58:38;58.67;;;38.77;;
22254;SDS011;11296;42.684;23.322;2022-11-18T03:01:06;57.53;;;38.50;;
22254;SDS011;11296;42.684;23.322;2022-11-18T03:03:43;64.40;;;42.37;;
22254;SDS011;11296;42.684;23.322;2022-11-18T03:11:23;60.03;;;39.60;;
22254;SDS011;11296;42.684;23.322;2022-11-18T03:13:57;55.70;;;36.63;;
22254;SDS011;11296;42.684;23.322;2022-11-18T03:17:18;65.37;;;41.17;;
22254;SDS011;11296;42.684;23.322;2022-11-18T03:22:33;60.10;;;39.20;;
22254;SDS011;11296;42.684;23.322;2022-11-18T03:25:08;59.80;;;38.43;;
22254;SDS011;11296;42.684;23.322;2022-11-18T03:27:46;63.13;;;38.50;;
22254;SDS011;11296;42.684;23.322;2022-11-18T03:30:23;78.73;;;40.77;;
22254;SDS011;11296;42.684;23.322;2022-11-18T03:32:55;100.37;;;43.87;;
22254;SDS011;11296;42.684;23.322;2022-11-18T03:35:27;74.97;;;39.67;;
22254;SDS011;11296;42.684;23.322;2022-11-18T03:38:01;126.77;;;42.13;;
22254;SDS011;11296;42.684;23.322;2022-11-18T03:40:32;116.00;;;42.23;;
22254;SDS011;11296;42.684;23.322;2022-11-18T03:43:04;68.77;;;39.17;;
22254;SDS011;11296;42.684;23.322;2022-11-18T03:45:35;84.83;;;38.03;;
22254;SDS011;11296;42.684;23.322;2022-11-18T03:48:14;90.10;;;38.10;;
22254;SDS011;11296;42.684;23.322;2022-11-18T03:50:43;69.00;;;38.20;;
22254;SDS011;11296;42.684;23.322;2022-11-18T03:53:15;82.93;;;40.03;;
22254;SDS011;11296;42.684;23.322;2022-11-18T03:55:45;84.20;;;41.30;;
22254;SDS011;11296;42.684;23.322;2022-11-18T04:00:46;67.80;;;38.90;;
22254;SDS011;11296;42.684;23.322;2022-11-18T04:03:16;65.90;;;39.20;;
22254;SDS011;11296;42.684;23.322;2022-11-18T04:05:42;60.17;;;37.97;;
22254;SDS011;11296;42.684;23.322;2022-11-18T04:08:10;71.17;;;38.80;;
22254;SDS011;11296;42.684;23.322;2022-11-18T04:13:17;69.03;;;40.53;;
22254;SDS011;11296;42.684;23.322;2022-11-18T04:15:48;104.77;;;40.50;;
22254;SDS011;11296;42.684;23.322;2022-11-18T04:18:14;74.47;;;37.97;;
22254;SDS011;11296;42.684;23.322;2022-11-18T04:20:40;78.53;;;37.47;;
22254;SDS011;11296;42.684;23.322;2022-11-18T04:23:06;67.83;;;35.27;;
22254;SDS011;11296;42.684;23.322;2022-11-18T04:25:32;65.23;;;36.43;;
22254;SDS011;11296;42.684;23.322;2022-11-18T04:27:58;72.80;;;39.37;;
22254;SDS011;11296;42.684;23.322;2022-11-18T04:30:24;62.00;;;38.23;;
22254;SDS011;11296;42.684;23.322;2022-11-18T04:32:50;56.23;;;34.73;;
22254;SDS011;11296;42.684;23.322;2022-11-18T04:35:15;51.70;;;33.50;;
22254;SDS011;11296;42.684;23.322;2022-11-18T04:37:41;46.50;;;31.53;;
22254;SDS011;11296;42.684;23.322;2022-11-18T04:40:25;55.17;;;32.97;;
22254;SDS011;11296;42.684;23.322;2022-11-18T04:42:51;59.87;;;32.73;;
22254;SDS011;11296;42.684;23.322;2022-11-18T04:45:16;73.17;;;35.23;;
22254;SDS011;11296;42.684;23.322;2022-11-18T04:47:42;102.50;;;34.87;;
22254;SDS011;11296;42.684;23.322;2022-11-18T04:50:08;75.07;;;34.60;;
22254;SDS011;11296;42.684;23.322;2022-11-18T04:52:34;88.93;;;34.73;;
22254;SDS011;11296;42.684;23.322;2022-11-18T04:54:59;58.93;;;31.03;;
22254;SDS011;11296;42.684;23.322;2022-11-18T04:57:25;73.20;;;33.73;;
22254;SDS011;11296;42.684;23.322;2022-11-18T04:59:51;67.13;;;34.70;;
22254;SDS011;11296;42.684;23.322;2022-11-18T05:02:16;121.47;;;37.30;;
22254;SDS011;11296;42.684;23.322;2022-11-18T05:04:55;81.87;;;35.80;;
22254;SDS011;11296;42.684;23.322;2022-11-18T05:07:20;78.77;;;36.97;;
22254;SDS011;11296;42.684;23.322;2022-11-18T05:09:48;118.80;;;39.33;;
22254;SDS011;11296;42.684;23.322;2022-11-18T05:12:14;102.33;;;38.23;;
22254;SDS011;11296;42.684;23.322;2022-11-18T05:15:12;107.73;;;37.50;;
22254;SDS011;11296;42.684;23.322;2022-11-18T05:17:37;103.90;;;38.43;;
22254;SDS011;11296;42.684;23.322;2022-11-18T05:20:03;98.83;;;39.90;;
22254;SDS011;11296;42.684;23.322;2022-11-18T05:22:29;129.50;;;40.70;;
22254;SDS011;11296;42.684;23.322;2022-11-18T05:24:55;111.10;;;36.30;;
22254;SDS011;11296;42.684;23.322;2022-11-18T05:27:20;105.67;;;37.57;;
22254;SDS011;11296;42.684;23.322;2022-11-18T05:29:46;119.93;;;37.47;;
22254;SDS011;11296;42.684;23.322;2022-11-18T05:32:14;174.23;;;36.70;;
22254;SDS011;11296;42.684;23.322;2022-11-18T05:34:40;127.67;;;34.50;;
22254;SDS011;11296;42.684;23.322;2022-11-18T05:37:06;136.67;;;32.67;;
22254;SDS011;11296;42.684;23.322;2022-11-18T05:39:34;73.10;;;31.60;;
22254;SDS011;11296;42.684;23.322;2022-11-18T05:42:00;60.40;;;31.27;;
22254;SDS011;11296;42.684;23.322;2022-11-18T05:44:44;100.70;;;35.43;;
22254;SDS011;11296;42.684;23.322;2022-11-18T05:47:10;117.03;;;33.83;;
22254;SDS011;11296;42.684;23.322;2022-11-18T05:49:36;84.53;;;33.67;;
22254;SDS011;11296;42.684;23.322;2022-11-18T05:52:11;100.83;;;32.87;;
22254;SDS011;11296;42.684;23.322;2022-11-18T05:54:38;76.57;;;33.20;;
22254;SDS011;11296;42.684;23.322;2022-11-18T05:57:06;73.97;;;34.43;;
22254;SDS011;11296;42.684;23.322;2022-11-18T05:59:32;76.23;;;31.53;;
22254;SDS011;11296;42.684;23.322;2022-11-18T06:04:27;77.90;;;31.20;;
22254;SDS011;11296;42.684;23.322;2022-11-18T06:07:07;151.10;;;31.97;;
22254;SDS011;11296;42.684;23.322;2022-11-18T06:09:37;71.60;;;29.23;;
22254;SDS011;11296;42.684;23.322;2022-11-18T06:12:05;128.57;;;29.37;;
22254;SDS011;11296;42.684;23.322;2022-11-18T06:14:36;88.83;;;30.80;;
22254;SDS011;11296;42.684;23.322;2022-11-18T06:17:09;154.40;;;27.67;;
22254;SDS011;11296;42.684;23.322;2022-11-18T06:19:41;248.50;;;29.77;;
22254;SDS011;11296;42.684;23.322;2022-11-18T06:22:07;85.30;;;23.40;;
22254;SDS011;11296;42.684;23.322;2022-11-18T06:24:34;158.50;;;26.93;;
22254;SDS011;11296;42.684;23.322;2022-11-18T06:27:00;104.33;;;24.87;;
22254;SDS011;11296;42.684;23.322;2022-11-18T06:29:26;80.57;;;26.83;;
22254;SDS011;11296;42.684;23.322;2022-11-18T06:31:52;115.37;;;30.30;;
22254;SDS011;11296;42.684;23.322;2022-11-18T06:34:17;102.70;;;25.97;;
22254;SDS011;11296;42.684;23.322;2022-11-18T06:36:43;105.67;;;21.70;;
22254;SDS011;11296;42.684;23.322;2022-11-18T06:39:09;66.63;;;22.70;;
22254;SDS011;11296;42.684;23.322;2022-11-18T06:41:34;66.03;;;22.20;;
22254;SDS011;11296;42.684;23.322;2022-11-18T06:44:00;112.20;;;41.03;;
22254;SDS011;11296;42.684;23.322;2022-11-18T06:46:26;93.07;;;30.70;;
22254;SDS011;11296;42.684;23.322;2022-11-18T06:49:09;84.40;;;24.43;;
22254;SDS011;11296;42.684;23.322;2022-11-18T06:51:35;77.90;;;22.53;;
22254;SDS011;11296;42.684;23.322;2022-11-18T06:54:02;73.90;;;22.67;;
22254;SDS011;11296;42.684;23.322;2022-11-18T06:56:27;76.47;;;24.47;;
22254;SDS011;11296;42.684;23.322;2022-11-18T06:58:53;83.43;;;22.97;;
22254;SDS011;11296;42.684;23.322;2022-11-18T07:01:22;86.20;;;22.33;;
22254;SDS011;11296;42.684;23.322;2022-11-18T07:03:51;104.10;;;23.17;;
22254;SDS011;11296;42.684;23.322;2022-11-18T07:06:18;65.40;;;21.77;;
22254;SDS011;11296;42.684;23.322;2022-11-18T07:08:49;55.40;;;21.43;;
22254;SDS011;11296;42.684;23.322;2022-11-18T07:11:16;118.30;;;23.47;;
22254;SDS011;11296;42.684;23.322;2022-11-18T07:13:43;83.70;;;21.43;;
22254;SDS011;11296;42.684;23.322;2022-11-18T07:16:14;104.87;;;26.53;;
22254;SDS011;11296;42.684;23.322;2022-11-18T07:18:42;54.83;;;19.37;;
22254;SDS011;11296;42.684;23.322;2022-11-18T07:21:12;63.37;;;20.63;;
22254;SDS011;11296;42.684;23.322;2022-11-18T07:23:40;93.73;;;22.47;;
22254;SDS011;11296;42.684;23.322;2022-11-18T07:26:07;68.90;;;23.63;;
22254;SDS011;11296;42.684;23.322;2022-11-18T07:28:33;53.00;;;21.27;;
22254;SDS011;11296;42.684;23.322;2022-11-18T07:31:00;54.80;;;19.97;;
22254;SDS011;11296;42.684;23.322;2022-11-18T07:33:27;46.53;;;19.73;;
22254;SDS011;11296;42.684;23.322;2022-11-18T07:35:53;47.23;;;19.40;;
22254;SDS011;11296;42.684;23.322;2022-11-18T07:38:18;61.60;;;25.97;;
22254;SDS011;11296;42.684;23.322;2022-11-18T07:40:44;55.00;;;23.70;;
22254;SDS011;11296;42.684;23.322;2022-11-18T07:43:09;46.50;;;21.37;;
22254;SDS011;11296;42.684;23.322;2022-11-18T07:45:36;55.07;;;21.80;;
22254;SDS011;11296;42.684;23.322;2022-11-18T07:48:01;50.47;;;21.10;;
22254;SDS011;11296;42.684;23.322;2022-11-18T07:50:27;48.07;;;20.83;;
22254;SDS011;11296;42.684;23.322;2022-11-18T07:52:56;52.00;;;20.57;;
22254;SDS011;11296;42.684;23.322;2022-11-18T07:55:22;50.67;;;20.37;;
22254;SDS011;11296;42.684;23.322;2022-11-18T07:57:48;48.23;;;20.63;;
22254;SDS011;11296;42.684;23.322;2022-11-18T08:00:14;44.43;;;20.50;;
22254;SDS011;11296;42.684;23.322;2022-11-18T08:02:40;54.33;;;20.00;;
22254;SDS011;11296;42.684;23.322;2022-11-18T08:05:08;86.77;;;47.30;;
22254;SDS011;11296;42.684;23.322;2022-11-18T08:07:36;56.63;;;21.97;;
22254;SDS011;11296;42.684;23.322;2022-11-18T08:10:02;45.13;;;20.87;;
22254;SDS011;11296;42.684;23.322;2022-11-18T08:12:28;49.10;;;19.80;;
22254;SDS011;11296;42.684;23.322;2022-11-18T08:14:56;80.33;;;22.03;;
22254;SDS011;11296;42.684;23.322;2022-11-18T08:17:22;46.83;;;22.67;;
22254;SDS011;11296;42.684;23.322;2022-11-18T08:19:48;50.20;;;22.60;;
22254;SDS011;11296;42.684;23.322;2022-11-18T08:22:13;56.20;;;23.93;;
22254;SDS011;11296;42.684;23.322;2022-11-18T08:24:41;47.00;;;22.67;;
22254;SDS011;11296;42.684;23.322;2022-11-18T08:27:06;60.50;;;23.23;;
22254;SDS011;11296;42.684;23.322;2022-11-18T08:29:32;57.20;;;24.20;;
22254;SDS011;11296;42.684;23.322;2022-11-18T08:31:58;56.20;;;25.30;;
22254;SDS011;11296;42.684;23.322;2022-11-18T08:34:23;59.87;;;26.10;;
22254;SDS011;11296;42.684;23.322;2022-11-18T08:36:49;93.43;;;49.77;;
22254;SDS011;11296;42.684;23.322;2022-11-18T08:39:14;57.17;;;25.03;;
22254;SDS011;11296;42.684;23.322;2022-11-18T08:41:41;60.43;;;24.97;;
22254;SDS011;11296;42.684;23.322;2022-11-18T08:44:11;58.40;;;25.40;;
22254;SDS011;11296;42.684;23.322;2022-11-18T08:46:39;57.77;;;24.40;;
22254;SDS011;11296;42.684;23.322;2022-11-18T08:49:05;67.73;;;25.37;;
22254;SDS011;11296;42.684;23.322;2022-11-18T08:51:30;58.30;;;23.40;;
22254;SDS011;11296;42.684;23.322;2022-11-18T08:53:56;53.40;;;24.27;;
22254;SDS011;11296;42.684;23.322;2022-11-18T08:56:22;59.23;;;25.07;;
22254;SDS011;11296;42.684;23.322;2022-11-18T08:58:49;60.40;;;23.97;;
22254;SDS011;11296;42.684;23.322;2022-11-18T09:01:15;68.30;;;29.77;;
22254;SDS011;11296;42.684;23.322;2022-11-18T09:03:41;73.73;;;34.13;;
22254;SDS011;11296;42.684;23.322;2022-11-18T09:06:11;59.70;;;24.03;;
22254;SDS011;11296;42.684;23.322;2022-11-18T09:08:48;67.70;;;26.87;;
22254;SDS011;11296;42.684;23.322;2022-11-18T09:11:16;68.43;;;27.40;;
22254;SDS011;11296;42.684;23.322;2022-11-18T09:13:43;63.27;;;28.40;;
22254;SDS011;11296;42.684;23.322;2022-11-18T09:16:09;67.43;;;28.27;;
22254;SDS011;11296;42.684;23.322;2022-11-18T09:18:35;65.93;;;28.90;;
22254;SDS011;11296;42.684;23.322;2022-11-18T09:21:05;67.83;;;28.27;;
22254;SDS011;11296;42.684;23.322;2022-11-18T09:23:33;63.00;;;27.20;;
22254;SDS011;11296;42.684;23.322;2022-11-18T09:26:00;57.07;;;26.13;;
22254;SDS011;11296;42.684;23.322;2022-11-18T09:28:48;55.67;;;25.97;;
22254;SDS011;11296;42.684;23.322;2022-11-18T09:31:15;61.80;;;26.43;;
22254;SDS011;11296;42.684;23.322;2022-11-18T09:33:42;59.17;;;27.13;;
22254;SDS011;11296;42.684;23.322;2022-11-18T09:36:12;66.73;;;29.00;;
22254;SDS011;11296;42.684;23.322;2022-11-18T09:38:43;71.47;;;31.57;;
22254;SDS011;11296;42.684;23.322;2022-11-18T09:49:37;67.33;;;32.50;;
22254;SDS011;11296;42.684;23.322;2022-11-18T09:52:19;59.80;;;31.83;;
22254;SDS011;11296;42.684;23.322;2022-11-18T09:54:47;55.40;;;29.23;;
22254;SDS011;11296;42.684;23.322;2022-11-18T09:59:45;55.67;;;28.60;;
22254;SDS011;11296;42.684;23.322;2022-11-18T10:07:53;55.00;;;30.03;;
22254;SDS011;11296;42.684;23.322;2022-11-18T10:10:29;58.63;;;29.63;;
22254;SDS011;11296;42.684;23.322;2022-11-18T10:13:11;51.10;;;28.80;;
22254;SDS011;11296;42.684;23.322;2022-11-18T10:18:39;49.23;;;28.83;;
22254;SDS011;11296;42.684;23.322;2022-11-18T10:24:11;48.90;;;27.30;;
22254;SDS011;11296;42.684;23.322;2022-11-18T10:26:44;42.07;;;26.53;;
22254;SDS011;11296;42.684;23.322;2022-11-18T10:29:10;41.37;;;26.00;;
22254;SDS011;11296;42.684;23.322;2022-11-18T10:31:36;47.97;;;31.50;;
22254;SDS011;11296;42.684;23.322;2022-11-18T10:34:17;40.90;;;25.30;;
22254;SDS011;11296;42.684;23.322;2022-11-18T10:36:43;41.93;;;27.27;;
22254;SDS011;11296;42.684;23.322;2022-11-18T10:39:22;44.10;;;27.43;;
22254;SDS011;11296;42.684;23.322;2022-11-18T10:41:48;45.60;;;28.00;;
22254;SDS011;11296;42.684;23.322;2022-11-18T10:44:30;46.23;;;28.17;;
22254;SDS011;11296;42.684;23.322;2022-11-18T10:49:43;40.43;;;27.63;;
22254;SDS011;11296;42.684;23.322;2022-11-18T10:52:12;43.97;;;26.80;;
22254;SDS011;11296;42.684;23.322;2022-11-18T10:54:39;44.73;;;26.37;;
22254;SDS011;11296;42.684;23.322;2022-11-18T10:59:50;34.47;;;22.30;;
22254;SDS011;11296;42.684;23.322;2022-11-18T11:02:20;30.53;;;19.60;;
22254;SDS011;11296;42.684;23.322;2022-11-18T11:04:56;31.60;;;17.73;;
22254;SDS011;11296;42.684;23.322;2022-11-18T11:12:32;36.00;;;21.77;;
22254;SDS011;11296;42.684;23.322;2022-11-18T11:15:01;38.10;;;23.83;;
22254;SDS011;11296;42.684;23.322;2022-11-18T11:20:40;37.83;;;24.53;;
22254;SDS011;11296;42.684;23.322;2022-11-18T11:23:13;40.50;;;24.57;;
22254;SDS011;11296;42.684;23.322;2022-11-18T11:28:33;52.17;;;30.23;;
22254;SDS011;11296;42.684;23.322;2022-11-18T11:39:23;45.40;;;27.03;;
22254;SDS011;11296;42.684;23.322;2022-11-18T11:55:53;36.70;;;23.07;;
22254;SDS011;11296;42.684;23.322;2022-11-18T11:58:30;33.33;;;20.57;;
22254;SDS011;11296;42.684;23.322;2022-11-18T12:04:04;34.47;;;21.67;;
22254;SDS011;11296;42.684;23.322;2022-11-18T12:06:56;31.37;;;21.23;;
22254;SDS011;11296;42.684;23.322;2022-11-18T12:11:59;33.73;;;20.67;;
22254;SDS011;11296;42.684;23.322;2022-11-18T12:14:59;29.73;;;21.70;;
22254;SDS011;11296;42.684;23.322;2022-11-18T12:17:42;30.53;;;21.43;;
22254;SDS011;11296;42.684;23.322;2022-11-18T12:20:35;29.37;;;20.20;;
22254;SDS011;11296;42.684;23.322;2022-11-18T12:23:09;29.43;;;20.60;;
22254;SDS011;11296;42.684;23.322;2022-11-18T12:29:18;27.70;;;16.90;;
22254;SDS011;11296;42.684;23.322;2022-11-18T12:37:46;27.90;;;17.30;;
22254;SDS011;11296;42.684;23.322;2022-11-18T12:46:08;22.50;;;15.43;;
22254;SDS011;11296;42.684;23.322;2022-11-18T12:56:28;19.77;;;14.33;;
22254;SDS011;11296;42.684;23.322;2022-11-18T12:58:56;23.33;;;15.80;;
22254;SDS011;11296;42.684;23.322;2022-11-18T13:01:27;21.90;;;14.47;;
22254;SDS011;11296;42.684;23.322;2022-11-18T13:06:55;20.83;;;12.80;;
22254;SDS011;11296;42.684;23.322;2022-11-18T13:09:29;5.70;;;3.47;;
22254;SDS011;11296;42.684;23.322;2022-11-18T13:12:04;14.03;;;8.53;;
22254;SDS011;11296;42.684;23.322;2022-11-18T13:14:43;16.50;;;10.27;;
22254;SDS011;11296;42.684;23.322;2022-11-18T13:17:32;19.57;;;11.13;;
22254;SDS011;11296;42.684;23.322;2022-11-18T13:20:35;16.93;;;9.93;;
22254;SDS011;11296;42.684;23.322;2022-11-18T13:26:21;3.07;;;2.13;;
22254;SDS011;11296;42.684;23.322;2022-11-18T13:29:14;16.10;;;7.03;;
22254;SDS011;11296;42.684;23.322;2022-11-18T13:34:30;7.50;;;5.03;;
22254;SDS011;11296;42.684;23.322;2022-11-18T13:37:11;6.23;;;4.03;;
22254;SDS011;11296;42.684;23.322;2022-11-18T13:39:46;6.03;;;3.50;;
22254;SDS011;11296;42.684;23.322;2022-11-18T13:42:40;7.23;;;4.40;;
22254;SDS011;11296;42.684;23.322;2022-11-18T13:45:11;6.37;;;4.17;;
22254;SDS011;11296;42.684;23.322;2022-11-18T13:50:16;8.83;;;5.07;;
22254;SDS011;11296;42.684;23.322;2022-11-18T13:53:06;5.67;;;3.23;;
22254;SDS011;11296;42.684;23.322;2022-11-18T13:55:52;4.17;;;2.60;;
22254;SDS011;11296;42.684;23.322;2022-11-18T13:58:37;6.03;;;3.07;;
22254;SDS011;11296;42.684;23.322;2022-11-18T14:03:46;15.13;;;5.53;;
22254;SDS011;11296;42.684;23.322;2022-11-18T14:06:31;11.33;;;5.13;;
22254;SDS011;11296;42.684;23.322;2022-11-18T14:09:23;7.60;;;5.27;;
22254;SDS011;11296;42.684;23.322;2022-11-18T14:11:58;9.47;;;5.73;;
22254;SDS011;11296;42.684;23.322;2022-11-18T14:14:44;8.60;;;5.43;;
22254;SDS011;11296;42.684;23.322;2022-11-18T14:17:14;9.17;;;6.23;;
22254;SDS011;11296;42.684;23.322;2022-11-18T14:19:51;14.57;;;6.77;;
22254;SDS011;11296;42.684;23.322;2022-11-18T14:22:20;10.07;;;6.47;;
22254;SDS011;11296;42.684;23.322;2022-11-18T14:27:37;9.67;;;6.53;;
22254;SDS011;11296;42.684;23.322;2022-11-18T14:35:52;9.03;;;4.70;;
22254;SDS011;11296;42.684;23.322;2022-11-18T14:38:34;10.00;;;5.40;;
22254;SDS011;11296;42.684;23.322;2022-11-18T14:41:07;10.60;;;6.53;;
22254;SDS011;11296;42.684;23.322;2022-11-18T14:43:34;8.90;;;4.90;;
22254;SDS011;11296;42.684;23.322;2022-11-18T14:46:02;6.97;;;2.17;;
22254;SDS011;11296;42.684;23.322;2022-11-18T14:48:30;3.47;;;1.90;;
22254;SDS011;11296;42.684;23.322;2022-11-18T14:50:56;10.97;;;8.07;;
22254;SDS011;11296;42.684;23.322;2022-11-18T14:53:22;8.23;;;3.77;;
22254;SDS011;11296;42.684;23.322;2022-11-18T14:55:50;4.17;;;2.40;;
22254;SDS011;11296;42.684;23.322;2022-11-18T14:58:17;16.60;;;11.20;;
22254;SDS011;11296;42.684;23.322;2022-11-18T15:00:43;29.13;;;21.60;;
22254;SDS011;11296;42.684;23.322;2022-11-18T15:03:11;14.77;;;9.37;;
22254;SDS011;11296;42.684;23.322;2022-11-18T15:05:45;3.13;;;1.50;;
22254;SDS011;11296;42.684;23.322;2022-11-18T15:08:19;2.90;;;1.90;;
22254;SDS011;11296;42.684;23.322;2022-11-18T15:10:44;2.70;;;1.63;;
22254;SDS011;11296;42.684;23.322;2022-11-18T15:13:10;1.70;;;1.23;;
22254;SDS011;11296;42.684;23.322;2022-11-18T15:15:36;3.00;;;1.30;;
22254;SDS011;11296;42.684;23.322;2022-11-18T15:18:04;1.53;;;1.30;;
22254;SDS011;11296;42.684;23.322;2022-11-18T15:20:29;4.23;;;2.03;;
22254;SDS011;11296;42.684;23.322;2022-11-18T15:22:55;3.53;;;1.90;;
22254;SDS011;11296;42.684;23.322;2022-11-18T15:25:21;2.47;;;1.67;;
22254;SDS011;11296;42.684;23.322;2022-11-18T15:27:46;2.47;;;1.77;;
22254;SDS011;11296;42.684;23.322;2022-11-18T15:30:12;3.00;;;1.63;;
22254;SDS011;11296;42.684;23.322;2022-11-18T15:32:39;2.27;;;1.83;;
22254;SDS011;11296;42.684;23.322;2022-11-18T15:35:05;3.30;;;1.90;;
22254;SDS011;11296;42.684;23.322;2022-11-18T15:37:37;3.47;;;2.00;;
22254;SDS011;11296;42.684;23.322;2022-11-18T15:40:03;2.70;;;2.00;;
22254;SDS011;11296;42.684;23.322;2022-11-18T15:42:28;9.93;;;6.60;;
22254;SDS011;11296;42.684;23.322;2022-11-18T15:44:54;4.83;;;3.40;;
22254;SDS011;11296;42.684;23.322;2022-11-18T15:47:20;3.33;;;2.63;;
22254;SDS011;11296;42.684;23.322;2022-11-18T15:49:45;7.90;;;3.47;;
22254;SDS011;11296;42.684;23.322;2022-11-18T15:52:11;11.43;;;7.10;;
22254;SDS011;11296;42.684;23.322;2022-11-18T15:54:37;7.73;;;4.10;;
22254;SDS011;11296;42.684;23.322;2022-11-18T15:57:03;7.47;;;4.90;;
22254;SDS011;11296;42.684;23.322;2022-11-18T15:59:29;10.07;;;5.70;;
22254;SDS011;11296;42.684;23.322;2022-11-18T16:01:57;9.33;;;4.67;;
22254;SDS011;11296;42.684;23.322;2022-11-18T16:04:22;6.90;;;4.37;;
22254;SDS011;11296;42.684;23.322;2022-11-18T16:06:48;7.93;;;4.73;;
22254;SDS011;11296;42.684;23.322;2022-11-18T16:09:14;6.57;;;4.40;;
22254;SDS011;11296;42.684;23.322;2022-11-18T16:11:41;8.33;;;4.43;;
22254;SDS011;11296;42.684;23.322;2022-11-18T16:14:26;8.13;;;5.90;;
22254;SDS011;11296;42.684;23.322;2022-11-18T16:16:52;9.47;;;6.20;;
22254;SDS011;11296;42.684;23.322;2022-11-18T16:19:23;9.37;;;5.23;;
22254;SDS011;11296;42.684;23.322;2022-11-18T16:21:59;8.80;;;4.57;;
22254;SDS011;11296;42.684;23.322;2022-11-18T16:24:25;6.10;;;3.80;;
22254;SDS011;11296;42.684;23.322;2022-11-18T16:27:04;7.37;;;4.67;;
22254;SDS011;11296;42.684;23.322;2022-11-18T16:29:38;5.63;;;3.20;;
22254;SDS011;11296;42.684;23.322;2022-11-18T16:32:10;2.43;;;1.70;;
22254;SDS011;11296;42.684;23.322;2022-11-18T16:34:39;3.47;;;2.10;;
22254;SDS011;11296;42.684;23.322;2022-11-18T16:37:06;3.47;;;2.23;;
22254;SDS011;11296;42.684;23.322;2022-11-18T16:39:32;4.10;;;2.53;;
22254;SDS011;11296;42.684;23.322;2022-11-18T16:41:59;3.70;;;2.10;;
22254;SDS011;11296;42.684;23.322;2022-11-18T16:44:26;4.53;;;2.73;;
22254;SDS011;11296;42.684;23.322;2022-11-18T16:46:56;4.60;;;2.80;;
22254;SDS011;11296;42.684;23.322;2022-11-18T16:49:27;12.30;;;6.57;;
22254;SDS011;11296;42.684;23.322;2022-11-18T16:52:29;8.93;;;6.27;;